Time;durP1;ratioP1;P1;durP2;ratioP2;P2;SDS_P1;SDS_P2;PMS_P1;PMS_P2;Temp;Humidity;BMP_temperature;BMP_pressure;BME280_temperature;BME280_humidity;BME280_pressure;Samples;Min_cycle;Max_cycle;Signal;HPM_P1;HPM_P2
2021/08/12 00:01:55;;;;;;;;;;;16.10;99.90;;;;;;5086699;28;19922;-82
2021/08/12 00:04:20;;;;;;;;;;;16.10;99.90;;;;;;5095190;28;19908;-82
2021/08/12 00:06:46;;;;;;;;;;;16.00;99.90;;;;;;5104792;28;20336;-82
2021/08/12 00:09:12;;;;;;;;;;;16.00;99.90;;;;;;5099727;28;19915;-83
2021/08/12 00:11:38;;;;;;;;;;;15.90;99.90;;;;;;5094670;28;20301;-83
2021/08/12 00:14:04;;;;;;;;;;;15.90;99.90;;;;;;5089996;28;19912;-81
2021/08/12 00:16:30;;;;;;;;;;;15.90;99.90;;;;;;5091189;28;19916;-83
2021/08/12 00:18:55;;;;;;;;;;;15.90;99.90;;;;;;5088634;28;19912;-83
2021/08/12 00:21:22;;;;;;;;;;;15.90;99.90;;;;;;5108374;28;19908;-83
2021/08/12 00:23:48;;;;;;;;;;;15.80;99.90;;;;;;5082762;28;20057;-82
2021/08/12 00:26:13;;;;;;;;;;;15.80;99.90;;;;;;5078002;28;19991;-82
2021/08/12 00:28:39;;;;;;;;;;;15.80;99.90;;;;;;5085741;28;20222;-82
2021/08/12 00:31:04;;;;;;;;;;;15.90;99.90;;;;;;5086254;28;19916;-83
2021/08/12 00:33:33;;;;;;;;;;;15.90;99.90;;;;;;5091282;28;19916;-83
2021/08/12 00:35:59;;;;;;;;;;;15.90;99.90;;;;;;5089454;28;19927;-82
2021/08/12 00:38:24;;;;;;;;;;;15.90;99.90;;;;;;5082840;28;19920;-83
2021/08/12 00:40:50;;;;;;;;;;;15.90;99.90;;;;;;5090167;28;20215;-86
2021/08/12 00:43:15;;;;;;;;;;;15.90;99.90;;;;;;5088426;28;19949;-85
2021/08/12 00:45:41;;;;;;;;;;;15.90;99.90;;;;;;5088538;28;19940;-86
2021/08/12 00:48:07;;;;;;;;;;;16.00;99.90;;;;;;5096928;28;19924;-77
2021/08/12 00:50:33;;;;;;;;;;;16.00;99.90;;;;;;5090617;28;20337;-84
2021/08/12 00:52:59;;;;;;;;;;;15.90;99.90;;;;;;5090461;28;20280;-84
2021/08/12 00:55:24;;;;;;;;;;;15.90;99.90;;;;;;5084539;28;19916;-84
2021/08/12 00:57:50;;;;;;;;;;;15.80;99.90;;;;;;5092108;28;19969;-84
2021/08/12 01:00:16;;;;;;;;;;;15.80;99.90;;;;;;5092668;28;19912;-84
2021/08/12 01:02:41;;;;;;;;;;;15.70;99.90;;;;;;5089241;28;19920;-85
2021/08/12 01:05:08;;;;;;;;;;;15.70;99.90;;;;;;5088647;28;19985;-82
2021/08/12 01:07:40;;;;;;;;;;;15.70;99.90;;;;;;5081581;28;19908;-83
2021/08/12 01:10:38;;;;;;;;;;;15.70;99.90;;;;;;5094295;28;19922;-83
2021/08/12 01:13:16;;;;;;;;;;;15.70;99.90;;;;;;5025674;28;19963;-83
2021/08/12 01:15:44;;;;;;;;;;;15.70;99.90;;;;;;5016217;28;19913;-83
2021/08/12 01:18:13;;;;;;;;;;;15.70;99.90;;;;;;5017285;28;20385;-84
2021/08/12 01:20:57;;;;;;;;;;;15.70;99.90;;;;;;5031836;28;19949;-84
2021/08/12 01:23:23;;;;;;;;;;;15.60;99.90;;;;;;5033611;28;19923;-83
2021/08/12 01:25:51;;;;;;;;;;;15.60;99.90;;;;;;5036339;28;19947;-85
2021/08/12 01:28:27;;;;;;;;;;;15.50;99.90;;;;;;5007833;28;19921;-78
2021/08/12 01:30:53;;;;;;;;;;;15.50;99.90;;;;;;5036719;28;20624;-85
2021/08/12 01:33:27;;;;;;;;;;;15.50;99.90;;;;;;5012885;28;20000;-84
2021/08/12 01:35:53;;;;;;;;;;;15.50;99.90;;;;;;5024804;28;20016;-84
2021/08/12 01:38:23;;;;;;;;;;;15.50;99.90;;;;;;5029157;28;20328;-84
2021/08/12 01:40:49;;;;;;;;;;;15.40;99.90;;;;;;5022359;28;19913;-84
2021/08/12 01:43:16;;;;;;;;;;;15.40;99.90;;;;;;5042715;28;19975;-85
2021/08/12 01:45:47;;;;;;;;;;;15.40;99.90;;;;;;5041449;28;19920;-84
2021/08/12 01:48:13;;;;;;;;;;;15.40;99.90;;;;;;5048888;28;19908;-83
2021/08/12 01:50:39;;;;;;;;;;;15.50;99.90;;;;;;5097498;28;19962;-84
2021/08/12 01:53:04;;;;;;;;;;;15.40;99.90;;;;;;5093529;28;20002;-84
2021/08/12 01:55:32;;;;;;;;;;;15.40;99.90;;;;;;5090348;28;19919;-84
2021/08/12 01:57:58;;;;;;;;;;;15.30;99.90;;;;;;5097289;28;19961;-80
2021/08/12 02:00:25;;;;;;;;;;;15.20;99.90;;;;;;5092806;28;19916;-84
2021/08/12 02:02:51;;;;;;;;;;;15.10;99.90;;;;;;5100679;28;20279;-85
2021/08/12 02:05:17;;;;;;;;;;;15.20;99.90;;;;;;5104992;28;19927;-84
2021/08/12 02:07:43;;;;;;;;;;;15.20;99.90;;;;;;5101641;28;19908;-85
2021/08/12 02:10:13;;;;;;;;;;;15.20;99.90;;;;;;5095763;28;19947;-85
2021/08/12 02:12:39;;;;;;;;;;;15.20;99.90;;;;;;5105214;28;19916;-83
2021/08/12 02:15:05;;;;;;;;;;;15.30;99.90;;;;;;5096820;28;19912;-83
2021/08/12 02:17:31;;;;;;;;;;;15.30;99.90;;;;;;5103055;28;19939;-84
2021/08/12 02:19:56;;;;;;;;;;;15.40;99.90;;;;;;5090431;28;20013;-80
2021/08/12 02:22:25;;;;;;;;;;;15.30;99.90;;;;;;5098457;28;19915;-82
2021/08/12 02:25:10;;;;;;;;;;;15.30;99.90;;;;;;5080951;28;19919;-83
2021/08/12 02:27:37;;;;;;;;;;;15.40;99.90;;;;;;5102473;28;20321;-83
2021/08/12 02:30:03;;;;;;;;;;;15.30;99.90;;;;;;5093979;28;19919;-82
2021/08/12 02:32:31;;;;;;;;;;;15.20;99.90;;;;;;5088506;28;19924;-83
2021/08/12 02:34:57;;;;;;;;;;;15.20;99.90;;;;;;5097438;28;19916;-78
2021/08/12 02:37:23;;;;;;;;;;;15.20;99.90;;;;;;5095707;28;20019;-83
2021/08/12 02:39:49;;;;;;;;;;;15.20;99.90;;;;;;5101135;28;20030;-83
2021/08/12 02:42:15;;;;;;;;;;;15.30;99.90;;;;;;5084072;28;20008;-84
2021/08/12 02:44:42;;;;;;;;;;;15.40;99.90;;;;;;5097110;28;19981;-83
2021/08/12 02:47:07;;;;;;;;;;;15.40;99.90;;;;;;5109421;28;20044;-83
2021/08/12 02:49:36;;;;;;;;;;;15.40;99.90;;;;;;5098136;28;20015;-84
2021/08/12 02:52:02;;;;;;;;;;;15.40;99.90;;;;;;5094098;28;19912;-83
2021/08/12 02:54:28;;;;;;;;;;;15.50;99.90;;;;;;5086328;28;20004;-78
2021/08/12 02:56:55;;;;;;;;;;;15.50;99.90;;;;;;5097381;28;20004;-82
2021/08/12 02:59:21;;;;;;;;;;;15.50;99.90;;;;;;5108454;27;19927;-82
2021/08/12 03:01:46;;;;;;;;;;;15.40;99.90;;;;;;5094541;28;19920;-82
2021/08/12 03:04:12;;;;;;;;;;;15.30;99.90;;;;;;5094061;28;20215;-84
2021/08/12 03:06:38;;;;;;;;;;;15.30;99.90;;;;;;5093735;28;20221;-83
2021/08/12 03:09:04;;;;;;;;;;;15.30;99.90;;;;;;5094293;28;19916;-85
2021/08/12 03:11:30;;;;;;;;;;;15.30;99.90;;;;;;5095360;28;19935;-85
2021/08/12 03:13:56;;;;;;;;;;;15.30;99.90;;;;;;5095645;28;19915;-82
2021/08/12 03:16:22;;;;;;;;;;;15.30;99.90;;;;;;5092678;28;19963;-83
2021/08/12 03:18:48;;;;;;;;;;;15.40;99.90;;;;;;5094736;28;20605;-82
2021/08/12 03:21:14;;;;;;;;;;;15.40;99.90;;;;;;5094877;28;20329;-83
2021/08/12 03:23:41;;;;;;;;;;;15.50;99.90;;;;;;5086255;28;19955;-84
2021/08/12 03:26:09;;;;;;;;;;;15.40;99.90;;;;;;5092453;28;19928;-79
2021/08/12 03:28:34;;;;;;;;;;;15.40;99.90;;;;;;5095532;28;19938;-83
2021/08/12 03:31:00;;;;;;;;;;;15.40;99.90;;;;;;5091583;28;19915;-83
2021/08/12 03:33:26;;;;;;;;;;;15.40;99.90;;;;;;5096613;28;20317;-82
2021/08/12 03:35:52;;;;;;;;;;;15.40;99.90;;;;;;5090276;28;19916;-83
2021/08/12 03:38:18;;;;;;;;;;;15.40;99.90;;;;;;5096352;28;19918;-83
2021/08/12 03:40:44;;;;;;;;;;;15.40;99.90;;;;;;5083949;28;19913;-83
2021/08/12 03:43:10;;;;;;;;;;;15.40;99.90;;;;;;5080450;28;19958;-83
2021/08/12 03:45:35;;;;;;;;;;;15.40;99.90;;;;;;5096941;28;19968;-83
2021/08/12 03:48:01;;;;;;;;;;;15.30;99.90;;;;;;5104059;28;19908;-82
2021/08/12 03:50:26;;;;;;;;;;;15.30;99.90;;;;;;5094890;28;20015;-81
2021/08/12 03:52:52;;;;;;;;;;;15.40;99.90;;;;;;5094511;28;19919;-84
2021/08/12 03:55:17;;;;;;;;;;;15.40;99.90;;;;;;5093410;28;19912;-83
2021/08/12 03:57:43;;;;;;;;;;;15.40;99.90;;;;;;5094286;28;19912;-84
2021/08/12 04:00:11;;;;;;;;;;;15.40;99.90;;;;;;5092375;28;19912;-82
2021/08/12 04:02:36;;;;;;;;;;;15.40;99.90;;;;;;5091975;28;20603;-81
2021/08/12 04:05:02;;;;;;;;;;;15.30;99.90;;;;;;5094577;28;19916;-82
2021/08/12 04:07:27;;;;;;;;;;;15.30;99.90;;;;;;5091960;28;19919;-82
2021/08/12 04:09:53;;;;;;;;;;;15.30;99.90;;;;;;5096779;28;19923;-83
2021/08/12 04:12:18;;;;;;;;;;;15.30;99.90;;;;;;5109483;28;19915;-83
2021/08/12 04:14:44;;;;;;;;;;;15.30;99.90;;;;;;5095867;28;20370;-84
2021/08/12 04:17:09;;;;;;;;;;;15.30;99.90;;;;;;5092970;28;20010;-83
2021/08/12 04:19:35;;;;;;;;;;;15.30;99.90;;;;;;5095186;28;19958;-82
2021/08/12 04:22:01;;;;;;;;;;;15.20;99.90;;;;;;5093539;28;20010;-83
2021/08/12 04:24:27;;;;;;;;;;;15.20;99.90;;;;;;5090665;28;20368;-83
2021/08/12 04:26:53;;;;;;;;;;;15.20;99.90;;;;;;5094347;28;20364;-83
2021/08/12 04:29:18;;;;;;;;;;;15.20;99.90;;;;;;5109350;28;19912;-83
2021/08/12 04:31:44;;;;;;;;;;;15.20;99.90;;;;;;5095180;28;19920;-84
2021/08/12 04:34:11;;;;;;;;;;;15.20;99.90;;;;;;5093643;28;19916;-82
2021/08/12 04:36:37;;;;;;;;;;;15.20;99.90;;;;;;5089534;28;19916;-79
2021/08/12 04:39:03;;;;;;;;;;;15.20;99.90;;;;;;5089095;28;19916;-82
2021/08/12 04:41:28;;;;;;;;;;;15.30;99.90;;;;;;5085082;28;20299;-81
2021/08/12 04:43:54;;;;;;;;;;;15.20;99.90;;;;;;5099740;28;19960;-81
2021/08/12 04:46:20;;;;;;;;;;;15.30;99.90;;;;;;5087642;28;19975;-82
2021/08/12 04:48:46;;;;;;;;;;;15.30;99.90;;;;;;5084367;28;20323;-82
2021/08/12 04:51:11;;;;;;;;;;;15.30;99.90;;;;;;5109430;28;20006;-83
2021/08/12 04:53:37;;;;;;;;;;;15.40;99.90;;;;;;5091307;28;20287;-81
2021/08/12 04:56:03;;;;;;;;;;;15.40;99.90;;;;;;5092713;28;19935;-84
2021/08/12 04:58:28;;;;;;;;;;;15.40;99.90;;;;;;5093230;28;19912;-81
2021/08/12 05:00:54;;;;;;;;;;;15.40;99.90;;;;;;5094437;28;19909;-81
2021/08/12 05:03:19;;;;;;;;;;;15.40;99.90;;;;;;5103920;28;19915;-81
2021/08/12 05:05:45;;;;;;;;;;;15.30;99.90;;;;;;5105640;28;19916;-83
2021/08/12 05:08:10;;;;;;;;;;;15.40;99.90;;;;;;5099249;28;19912;-82
2021/08/12 05:10:36;;;;;;;;;;;15.40;99.90;;;;;;5094228;28;19919;-83
2021/08/12 05:13:02;;;;;;;;;;;15.40;99.90;;;;;;5105214;28;19915;-82
2021/08/12 05:15:28;;;;;;;;;;;15.40;99.90;;;;;;5086614;28;19935;-80
2021/08/12 05:17:54;;;;;;;;;;;15.40;99.90;;;;;;5112752;27;19959;-82
2021/08/12 05:20:20;;;;;;;;;;;15.40;99.90;;;;;;5093280;28;19955;-80
2021/08/12 05:22:45;;;;;;;;;;;15.40;99.90;;;;;;5097576;28;19912;-82
2021/08/12 05:25:11;;;;;;;;;;;15.40;99.90;;;;;;5102792;28;19916;-83
2021/08/12 05:27:36;;;;;;;;;;;15.40;99.90;;;;;;5100051;28;19931;-79
2021/08/12 05:30:02;;;;;;;;;;;15.40;99.90;;;;;;5103170;28;19924;-83
2021/08/12 05:32:28;;;;;;;;;;;15.50;99.90;;;;;;5089958;28;19924;-82
2021/08/12 05:34:54;;;;;;;;;;;15.50;99.90;;;;;;5096905;28;19920;-83
2021/08/12 05:37:19;;;;;;;;;;;15.50;99.90;;;;;;5095060;28;19938;-82
2021/08/12 05:39:45;;;;;;;;;;;15.50;99.90;;;;;;5099915;28;20310;-81
2021/08/12 05:42:10;;;;;;;;;;;15.50;99.90;;;;;;5098401;28;19920;-81
2021/08/12 05:44:36;;;;;;;;;;;15.50;99.90;;;;;;5099236;28;19969;-82
2021/08/12 05:47:02;;;;;;;;;;;15.50;99.90;;;;;;5101978;28;19916;-81
2021/08/12 05:49:27;;;;;;;;;;;15.60;99.90;;;;;;5102453;28;19923;-79
2021/08/12 05:51:53;;;;;;;;;;;15.60;99.90;;;;;;5101950;28;19923;-81
2021/08/12 05:54:19;;;;;;;;;;;15.70;99.90;;;;;;5099023;28;20304;-82
2021/08/12 05:56:45;;;;;;;;;;;15.70;99.90;;;;;;5094181;28;19962;-81
2021/08/12 05:59:10;;;;;;;;;;;15.70;99.90;;;;;;5093714;28;20005;-80
2021/08/12 06:01:36;;;;;;;;;;;15.80;99.90;;;;;;5095231;28;19921;-81
2021/08/12 06:04:01;;;;;;;;;;;15.80;99.90;;;;;;5088344;28;20218;-82
2021/08/12 06:06:27;;;;;;;;;;;15.90;99.90;;;;;;5087980;28;19916;-80
2021/08/12 06:08:53;;;;;;;;;;;16.00;99.90;;;;;;5088232;28;19912;-81
2021/08/12 06:11:18;;;;;;;;;;;16.10;99.90;;;;;;5089547;28;19920;-81
2021/08/12 06:13:44;;;;;;;;;;;16.10;99.90;;;;;;5089951;28;19998;-82
2021/08/12 06:16:10;;;;;;;;;;;16.20;99.90;;;;;;5086507;28;19920;-78
2021/08/12 06:18:35;;;;;;;;;;;16.30;99.90;;;;;;5092901;28;19912;-81
2021/08/12 06:21:01;;;;;;;;;;;16.30;99.90;;;;;;5090364;28;19918;-82
2021/08/12 06:23:26;;;;;;;;;;;16.30;99.90;;;;;;5111058;27;19956;-78
2021/08/12 06:25:52;;;;;;;;;;;16.40;99.90;;;;;;5083885;28;20389;-81
2021/08/12 06:28:18;;;;;;;;;;;16.50;99.90;;;;;;5081982;28;19999;-81
2021/08/12 06:30:43;;;;;;;;;;;16.50;99.90;;;;;;5085391;28;19912;-81
2021/08/12 06:33:09;;;;;;;;;;;16.60;99.90;;;;;;5088543;28;19921;-81
2021/08/12 06:35:35;;;;;;;;;;;16.60;99.90;;;;;;5092620;28;19974;-81
2021/08/12 06:38:03;;;;;;;;;;;16.80;99.90;;;;;;5088373;28;20011;-81
2021/08/12 06:40:28;;;;;;;;;;;16.90;99.90;;;;;;5086432;28;19927;-82
2021/08/12 06:42:55;;;;;;;;;;;16.90;99.90;;;;;;5087453;28;20234;-82
2021/08/12 06:45:21;;;;;;;;;;;16.90;99.90;;;;;;5085285;28;19923;-81
2021/08/12 06:47:48;;;;;;;;;;;17.10;99.90;;;;;;5083651;28;20268;-81
2021/08/12 06:50:14;;;;;;;;;;;17.10;99.90;;;;;;5088502;28;19912;-82
2021/08/12 06:52:40;;;;;;;;;;;17.20;99.90;;;;;;5086519;28;20200;-80
2021/08/12 06:55:05;;;;;;;;;;;17.20;99.90;;;;;;5087541;28;19912;-81
2021/08/12 06:57:31;;;;;;;;;;;17.30;99.90;;;;;;5087249;28;19912;-81
2021/08/12 06:59:57;;;;;;;;;;;17.30;99.90;;;;;;5086979;28;20015;-80
2021/08/12 07:02:22;;;;;;;;;;;17.40;99.90;;;;;;5089575;28;19965;-81
2021/08/12 07:04:48;;;;;;;;;;;17.50;99.90;;;;;;5087190;28;20192;-81
2021/08/12 07:07:13;;;;;;;;;;;17.50;99.90;;;;;;5080787;28;19916;-82
2021/08/12 07:09:39;;;;;;;;;;;17.60;99.90;;;;;;5081930;28;19927;-81
2021/08/12 07:12:05;;;;;;;;;;;17.70;99.90;;;;;;5087185;28;19920;-81
2021/08/12 07:14:31;;;;;;;;;;;17.80;99.90;;;;;;5081575;28;19960;-82
2021/08/12 07:16:57;;;;;;;;;;;17.90;99.90;;;;;;5087081;28;19960;-81
2021/08/12 07:19:23;;;;;;;;;;;18.00;99.90;;;;;;5094828;28;19920;-82
2021/08/12 07:21:51;;;;;;;;;;;18.20;99.90;;;;;;5094911;28;19958;-82
2021/08/12 07:24:16;;;;;;;;;;;18.30;99.90;;;;;;5096152;28;20210;-82
2021/08/12 07:26:43;;;;;;;;;;;18.40;99.90;;;;;;5097789;28;19916;-83
2021/08/12 07:29:09;;;;;;;;;;;18.60;99.90;;;;;;5104653;28;19912;-82
2021/08/12 07:31:34;;;;;;;;;;;18.70;99.90;;;;;;5099194;28;20015;-83
2021/08/12 07:34:00;;;;;;;;;;;18.90;99.90;;;;;;5092680;28;19916;-81
2021/08/12 07:36:25;;;;;;;;;;;19.00;99.90;;;;;;5093118;28;20240;-83
2021/08/12 07:38:51;;;;;;;;;;;19.20;99.90;;;;;;5093386;28;19916;-81
2021/08/12 07:41:18;;;;;;;;;;;19.40;99.90;;;;;;5090624;28;19916;-79
2021/08/12 07:43:43;;;;;;;;;;;19.50;99.90;;;;;;5089504;28;19908;-83
2021/08/12 07:46:09;;;;;;;;;;;19.60;99.90;;;;;;5095420;28;19912;-84
2021/08/12 07:48:36;;;;;;;;;;;19.70;99.90;;;;;;5088636;28;19967;-83
2021/08/12 07:51:02;;;;;;;;;;;19.90;99.90;;;;;;5085043;28;20011;-84
2021/08/12 07:53:28;;;;;;;;;;;20.00;99.90;;;;;;5086726;28;20469;-85
2021/08/12 07:55:56;;;;;;;;;;;20.20;99.90;;;;;;5086318;28;20372;-84
2021/08/12 07:58:22;;;;;;;;;;;20.30;99.90;;;;;;5086731;28;19949;-84
2021/08/12 08:00:47;;;;;;;;;;;20.40;99.90;;;;;;5086467;28;19990;-82
2021/08/12 08:03:13;;;;;;;;;;;20.50;99.90;;;;;;5087487;28;19919;-86
2021/08/12 08:05:38;;;;;;;;;;;20.70;99.90;;;;;;5086477;28;19959;-85
2021/08/12 08:08:04;;;;;;;;;;;20.70;99.90;;;;;;5087842;28;19961;-84
2021/08/12 08:10:30;;;;;;;;;;;20.90;99.90;;;;;;5091213;28;19913;-84
2021/08/12 08:12:55;;;;;;;;;;;21.10;99.90;;;;;;5102260;28;19951;-87
2021/08/12 08:15:21;;;;;;;;;;;21.30;99.90;;;;;;5081337;28;20480;-86
2021/08/12 08:17:47;;;;;;;;;;;21.40;99.90;;;;;;5091778;28;19927;-85
2021/08/12 08:20:13;;;;;;;;;;;21.60;99.90;;;;;;5085659;28;19998;-86
2021/08/12 08:22:39;;;;;;;;;;;21.80;99.90;;;;;;5092518;28;19918;-85
2021/08/12 08:25:05;;;;;;;;;;;21.90;99.90;;;;;;5086640;28;19916;-85
2021/08/12 08:27:31;;;;;;;;;;;22.00;99.90;;;;;;5083181;28;19965;-86
2021/08/12 08:29:56;;;;;;;;;;;22.20;99.90;;;;;;5089754;28;19926;-86
2021/08/12 08:32:22;;;;;;;;;;;22.30;99.90;;;;;;5086786;28;20261;-83
2021/08/12 08:34:48;;;;;;;;;;;22.40;99.90;;;;;;5091658;28;19917;-85
2021/08/12 08:37:14;;;;;;;;;;;22.50;99.90;;;;;;5094233;28;20215;-82
2021/08/12 08:39:39;;;;;;;;;;;22.50;99.90;;;;;;5090848;28;19957;-83
2021/08/12 08:42:06;;;;;;;;;;;22.60;99.90;;;;;;5087105;28;19912;-85
2021/08/12 08:44:33;;;;;;;;;;;22.70;99.90;;;;;;5105169;28;19922;-86
2021/08/12 08:46:59;;;;;;;;;;;22.70;99.90;;;;;;5087640;28;19916;-88
2021/08/12 08:49:26;;;;;;;;;;;22.80;99.90;;;;;;5101963;28;19919;-85
2021/08/12 08:51:52;;;;;;;;;;;22.80;99.90;;;;;;5092083;28;19912;-84
2021/08/12 08:54:18;;;;;;;;;;;23.00;99.90;;;;;;5112464;28;19920;-79
2021/08/12 08:56:44;;;;;;;;;;;23.10;99.90;;;;;;5094918;28;20007;-90
2021/08/12 08:59:10;;;;;;;;;;;23.10;99.90;;;;;;5096330;28;19948;-85
2021/08/12 09:01:36;;;;;;;;;;;23.10;99.90;;;;;;5096274;28;19951;-85
2021/08/12 09:04:02;;;;;;;;;;;23.20;99.90;;;;;;5094162;28;19912;-87
2021/08/12 09:06:27;;;;;;;;;;;23.20;99.90;;;;;;5095727;28;19939;-81
2021/08/12 09:08:56;;;;;;;;;;;23.20;99.90;;;;;;5094330;28;19957;-87
2021/08/12 09:11:23;;;;;;;;;;;23.20;99.90;;;;;;5095759;28;19948;-83
2021/08/12 09:13:48;;;;;;;;;;;23.20;99.90;;;;;;5094135;28;19961;-88
2021/08/12 09:16:44;;;;;;;;;;;23.20;99.90;;;;;;5095500;28;19951;-81
2021/08/12 09:19:25;;;;;;;;;;;23.30;99.90;;;;;;5080777;28;20211;-85
2021/08/12 09:21:52;;;;;;;;;;;23.30;99.90;;;;;;5094022;28;19960;-84
2021/08/12 09:24:17;;;;;;;;;;;23.30;99.90;;;;;;5094001;28;19916;-79
2021/08/12 09:26:43;;;;;;;;;;;23.30;99.90;;;;;;5094226;28;20226;-86
2021/08/12 09:29:09;;;;;;;;;;;23.30;99.90;;;;;;5094027;28;20022;-85
2021/08/12 09:31:35;;;;;;;;;;;23.40;99.90;;;;;;5091083;28;19920;-89
2021/08/12 09:34:13;;;;;;;;;;;23.60;99.90;;;;;;5081416;28;19909;-79
2021/08/12 09:36:39;;;;;;;;;;;23.70;99.90;;;;;;5082230;28;20010;-84
2021/08/12 09:39:05;;;;;;;;;;;23.70;99.90;;;;;;5094817;28;19908;-81
2021/08/12 09:41:40;;;;;;;;;;;23.70;99.90;;;;;;5094990;28;19915;-86
2021/08/12 09:44:06;;;;;;;;;;;23.80;99.90;;;;;;5094079;28;19915;-88
2021/08/12 09:46:34;;;;;;;;;;;23.90;99.90;;;;;;5084513;28;19920;-84
2021/08/12 09:49:01;;;;;;;;;;;23.80;99.90;;;;;;5098421;28;19920;-88
2021/08/12 09:51:34;;;;;;;;;;;23.90;99.90;;;;;;5094770;28;20496;-85
2021/08/12 09:54:04;;;;;;;;;;;23.90;99.90;;;;;;5094872;28;19912;-79
2021/08/12 09:56:29;;;;;;;;;;;23.90;99.90;;;;;;5095478;28;19915;-87
2021/08/12 09:59:03;;;;;;;;;;;24.00;99.90;;;;;;5093819;28;19913;-79
2021/08/12 10:01:29;;;;;;;;;;;24.00;99.90;;;;;;5104792;28;20310;-85
2021/08/12 10:03:54;;;;;;;;;;;24.00;99.90;;;;;;5099850;28;19914;-84
2021/08/12 10:06:21;;;;;;;;;;;24.00;99.90;;;;;;5107315;28;20322;-87
2021/08/12 10:08:47;;;;;;;;;;;24.10;99.90;;;;;;5110433;28;19920;-82
2021/08/12 10:11:17;;;;;;;;;;;24.10;99.90;;;;;;5110612;28;19912;-87
2021/08/12 10:13:43;;;;;;;;;;;24.20;99.90;;;;;;5103489;28;19908;-85
2021/08/12 10:16:09;;;;;;;;;;;24.20;99.90;;;;;;5096100;28;20544;-83
2021/08/12 10:18:36;;;;;;;;;;;24.20;99.90;;;;;;5098937;28;19912;-88
2021/08/12 10:21:01;;;;;;;;;;;24.20;99.90;;;;;;5098086;28;19914;-78
2021/08/12 10:23:29;;;;;;;;;;;24.30;99.90;;;;;;5104788;28;19915;-80
2021/08/12 10:25:58;;;;;;;;;;;24.30;99.90;;;;;;5104819;28;19969;-88
2021/08/12 10:28:25;;;;;;;;;;;24.30;99.90;;;;;;5097546;28;20258;-86
2021/08/12 10:30:51;;;;;;;;;;;24.40;99.90;;;;;;5097154;28;19915;-86
2021/08/12 10:33:17;;;;;;;;;;;24.50;99.90;;;;;;5103869;28;19921;-80
2021/08/12 10:35:42;;;;;;;;;;;24.50;99.90;;;;;;5091760;28;19912;-80
2021/08/12 10:38:08;;;;;;;;;;;24.70;99.90;;;;;;5098886;28;19908;-87
2021/08/12 10:40:35;;;;;;;;;;;24.70;99.90;;;;;;5113355;28;20006;-86
2021/08/12 10:43:01;;;;;;;;;;;24.70;99.90;;;;;;5094419;28;19927;-85
2021/08/12 10:45:28;;;;;;;;;;;24.80;99.90;;;;;;5083185;28;19977;-81
2021/08/12 10:47:54;;;;;;;;;;;24.70;99.90;;;;;;5101507;28;19976;-83
2021/08/12 10:50:23;;;;;;;;;;;24.80;99.90;;;;;;5105080;28;19916;-84
2021/08/12 10:53:04;;;;;;;;;;;24.80;99.90;;;;;;5098106;28;19912;-87
2021/08/12 10:55:39;;;;;;;;;;;24.80;99.90;;;;;;5091049;28;19923;-87
2021/08/12 10:58:25;;;;;;;;;;;25.00;99.90;;;;;;5089302;28;19978;-85
2021/08/12 11:00:57;;;;;;;;;;;25.00;99.90;;;;;;5083875;28;19916;-80
2021/08/12 11:03:31;;;;;;;;;;;25.10;99.90;;;;;;5098568;28;20295;-86
2021/08/12 11:06:06;;;;;;;;;;;25.20;99.90;;;;;;5097775;28;19927;-82
2021/08/12 11:11:36;;;;;;;;;;;25.30;99.90;;;;;;5089407;28;19908;-89
2021/08/12 11:14:07;;;;;;;;;;;25.40;99.90;;;;;;5094757;28;19908;-89
2021/08/12 11:16:41;;;;;;;;;;;25.30;99.90;;;;;;5097470;28;19966;-86
2021/08/12 11:19:25;;;;;;;;;;;25.30;99.90;;;;;;5097649;28;20285;-82
2021/08/12 11:21:52;;;;;;;;;;;25.20;99.90;;;;;;5094755;28;19938;-89
2021/08/12 11:24:24;;;;;;;;;;;25.30;99.90;;;;;;5092393;28;19915;-88
2021/08/12 11:26:50;;;;;;;;;;;25.30;99.90;;;;;;5081587;28;19916;-89
2021/08/12 11:29:22;;;;;;;;;;;25.40;99.90;;;;;;5093209;28;20227;-85
2021/08/12 11:31:47;;;;;;;;;;;25.30;99.90;;;;;;5096226;28;20345;-88
2021/08/12 11:34:21;;;;;;;;;;;25.40;99.90;;;;;;5096047;28;19994;-90
2021/08/12 11:37:07;;;;;;;;;;;25.40;99.90;;;;;;5077956;28;19927;-86
2021/08/12 11:39:33;;;;;;;;;;;25.40;99.90;;;;;;5090033;28;20385;-85
2021/08/12 11:41:59;;;;;;;;;;;25.40;99.90;;;;;;5089378;28;19931;-89
2021/08/12 11:44:25;;;;;;;;;;;25.40;99.90;;;;;;5097791;28;20298;-89
2021/08/12 11:46:50;;;;;;;;;;;25.40;99.90;;;;;;5096368;28;19920;-85
2021/08/12 11:49:17;;;;;;;;;;;25.30;99.90;;;;;;5104623;28;19908;-88
2021/08/12 11:51:43;;;;;;;;;;;25.20;99.90;;;;;;5088332;28;20295;-91
2021/08/12 11:54:10;;;;;;;;;;;25.10;99.90;;;;;;5096192;28;19916;-86
2021/08/12 11:56:37;;;;;;;;;;;25.00;99.90;;;;;;5090869;28;19915;-86
2021/08/12 11:59:04;;;;;;;;;;;24.90;99.90;;;;;;5112799;27;19908;-85
2021/08/12 12:01:34;;;;;;;;;;;24.80;99.90;;;;;;5112894;28;20003;-87
2021/08/12 12:04:04;;;;;;;;;;;24.70;99.90;;;;;;5084800;28;19957;-87
2021/08/12 12:06:31;;;;;;;;;;;24.60;99.90;;;;;;5087408;28;20291;-90
2021/08/12 12:08:56;;;;;;;;;;;24.60;99.90;;;;;;5089386;28;19962;-86
2021/08/12 12:11:22;;;;;;;;;;;24.50;99.90;;;;;;5095788;28;19916;-86
2021/08/12 12:13:47;;;;;;;;;;;24.60;99.90;;;;;;5097273;28;19954;-82
2021/08/12 12:16:13;;;;;;;;;;;24.70;99.90;;;;;;5097703;28;19996;-90
2021/08/12 12:18:40;;;;;;;;;;;24.80;99.90;;;;;;5112429;28;19966;-84
2021/08/12 12:21:08;;;;;;;;;;;24.90;99.90;;;;;;5081202;28;19920;-91
2021/08/12 12:23:34;;;;;;;;;;;24.80;99.90;;;;;;5101471;28;19912;-83
2021/08/12 12:25:59;;;;;;;;;;;24.80;99.90;;;;;;5092607;28;19969;-89
2021/08/12 12:28:25;;;;;;;;;;;24.70;99.90;;;;;;5096980;28;19908;-85
2021/08/12 12:30:51;;;;;;;;;;;24.60;99.90;;;;;;5086184;28;19908;-81
2021/08/12 12:33:18;;;;;;;;;;;24.50;99.90;;;;;;5099347;28;19927;-79
2021/08/12 12:35:47;;;;;;;;;;;24.50;99.90;;;;;;5098610;28;20310;-85
2021/08/12 12:38:17;;;;;;;;;;;24.60;99.90;;;;;;5084420;28;20310;-84
2021/08/12 12:40:43;;;;;;;;;;;24.70;99.90;;;;;;5087774;28;19912;-88
2021/08/12 12:43:09;;;;;;;;;;;24.80;99.90;;;;;;5095919;28;19908;-90
2021/08/12 12:45:47;;;;;;;;;;;24.80;99.90;;;;;;5095186;28;20010;-91
2021/08/12 12:48:13;;;;;;;;;;;24.70;99.90;;;;;;5086297;28;19908;-88
2021/08/12 12:50:42;;;;;;;;;;;24.60;99.90;;;;;;5086658;28;19908;-86
2021/08/12 12:53:07;;;;;;;;;;;24.50;99.90;;;;;;5093967;28;20607;-80
2021/08/12 12:55:37;;;;;;;;;;;24.50;99.90;;;;;;5079917;28;19957;-88
2021/08/12 12:58:16;;;;;;;;;;;24.50;99.90;;;;;;5094754;28;19908;-86
2021/08/12 13:00:43;;;;;;;;;;;24.50;99.90;;;;;;5094390;28;19912;-90
2021/08/12 13:03:09;;;;;;;;;;;24.70;99.90;;;;;;5089206;28;19970;-86
2021/08/12 13:05:50;;;;;;;;;;;24.80;99.90;;;;;;5093336;28;19943;-83
2021/08/12 13:08:16;;;;;;;;;;;24.70;99.90;;;;;;5095803;28;19909;-87
2021/08/12 13:10:42;;;;;;;;;;;24.80;99.90;;;;;;5094352;28;20014;-85
2021/08/12 13:13:08;;;;;;;;;;;24.90;99.90;;;;;;5112424;28;20323;-86
2021/08/12 13:15:36;;;;;;;;;;;25.00;99.90;;;;;;5085159;28;19909;-84
2021/08/12 13:18:05;;;;;;;;;;;25.00;99.90;;;;;;5092183;28;19912;-88
2021/08/12 13:20:40;;;;;;;;;;;25.10;99.90;;;;;;5087585;28;19908;-86
2021/08/12 13:23:06;;;;;;;;;;;25.20;99.90;;;;;;5091930;28;20610;-92
2021/08/12 13:25:32;;;;;;;;;;;25.30;99.90;;;;;;5096925;28;19958;-88
2021/08/12 13:27:58;;;;;;;;;;;25.30;99.90;;;;;;5088058;28;19966;-79
2021/08/12 13:30:31;;;;;;;;;;;25.30;99.90;;;;;;5091767;28;19912;-86
2021/08/12 13:32:57;;;;;;;;;;;25.40;99.90;;;;;;5096791;28;19942;-88
2021/08/12 13:35:23;;;;;;;;;;;25.30;99.90;;;;;;5098182;28;19912;-85
2021/08/12 13:37:48;;;;;;;;;;;25.30;99.90;;;;;;5092695;28;19912;-86
2021/08/12 13:40:14;;;;;;;;;;;25.20;99.90;;;;;;5093996;28;20002;-83
2021/08/12 13:42:40;;;;;;;;;;;25.10;99.90;;;;;;5093835;28;20303;-80
2021/08/12 13:45:05;;;;;;;;;;;25.00;99.90;;;;;;5098103;28;19919;-85
2021/08/12 13:47:31;;;;;;;;;;;24.90;99.90;;;;;;5097716;28;19939;-85
2021/08/12 13:49:57;;;;;;;;;;;24.70;99.90;;;;;;5111529;28;19939;-86
2021/08/12 13:52:22;;;;;;;;;;;24.70;99.90;;;;;;5094407;28;19916;-85
2021/08/12 13:54:48;;;;;;;;;;;24.70;99.90;;;;;;5112977;28;20329;-85
2021/08/12 13:57:14;;;;;;;;;;;24.70;99.90;;;;;;5099650;28;19908;-85
2021/08/12 13:59:39;;;;;;;;;;;24.80;99.90;;;;;;5097344;28;20252;-84
2021/08/12 14:02:05;;;;;;;;;;;24.90;99.90;;;;;;5099346;28;20003;-87
2021/08/12 14:04:31;;;;;;;;;;;24.90;99.90;;;;;;5098359;28;19912;-85
2021/08/12 14:06:57;;;;;;;;;;;25.00;99.90;;;;;;5098515;28;20321;-86
2021/08/12 14:09:23;;;;;;;;;;;25.00;99.90;;;;;;5098840;28;20369;-86
2021/08/12 14:11:50;;;;;;;;;;;25.00;99.90;;;;;;5106949;28;19958;-80
2021/08/12 14:14:16;;;;;;;;;;;25.00;99.90;;;;;;5093791;28;20184;-86
2021/08/12 14:16:42;;;;;;;;;;;25.00;99.90;;;;;;5109120;28;19915;-87
2021/08/12 14:19:08;;;;;;;;;;;25.00;99.90;;;;;;5099422;28;19987;-82